sensor_id;sensor_type;location;lat;lon;timestamp;temperature;humidity
21627;DHT22;10975;47.872;12.972;2023-04-09T00:00:14;4.30;99.90
21627;DHT22;10975;47.872;12.972;2023-04-09T00:02:42;4.30;99.90
21627;DHT22;10975;47.872;12.972;2023-04-09T00:05:08;4.20;99.90
21627;DHT22;10975;47.872;12.972;2023-04-09T00:07:35;4.30;99.90
21627;DHT22;10975;47.872;12.972;2023-04-09T00:10:02;4.30;99.90
21627;DHT22;10975;47.872;12.972;2023-04-09T00:12:29;4.30;99.90
21627;DHT22;10975;47.872;12.972;2023-04-09T00:14:56;4.20;99.90
21627;DHT22;10975;47.872;12.972;2023-04-09T00:17:23;4.20;99.90
21627;DHT22;10975;47.872;12.972;2023-04-09T00:19:50;4.20;99.90
21627;DHT22;10975;47.872;12.972;2023-04-09T00:22:17;4.10;99.90
21627;DHT22;10975;47.872;12.972;2023-04-09T00:24:44;4.10;99.90
21627;DHT22;10975;47.872;12.972;2023-04-09T00:27:11;4.10;99.90
21627;DHT22;10975;47.872;12.972;2023-04-09T00:29:37;4.10;99.90
21627;DHT22;10975;47.872;12.972;2023-04-09T00:32:04;4.10;99.90
21627;DHT22;10975;47.872;12.972;2023-04-09T00:34:31;4.10;99.90
21627;DHT22;10975;47.872;12.972;2023-04-09T00:36:58;4.10;99.90
21627;DHT22;10975;47.872;12.972;2023-04-09T00:39:25;4.10;99.90
21627;DHT22;10975;47.872;12.972;2023-04-09T00:41:58;4.20;99.90
21627;DHT22;10975;47.872;12.972;2023-04-09T00:44:25;4.20;99.90
21627;DHT22;10975;47.872;12.972;2023-04-09T00:46:53;4.20;99.90
21627;DHT22;10975;47.872;12.972;2023-04-09T00:49:20;4.20;99.90
21627;DHT22;10975;47.872;12.972;2023-04-09T00:51:47;4.20;99.90
21627;DHT22;10975;47.872;12.972;2023-04-09T00:54:14;4.20;99.90
21627;DHT22;10975;47.872;12.972;2023-04-09T00:56:41;4.20;99.90
21627;DHT22;10975;47.872;12.972;2023-04-09T00:59:10;4.10;99.90
21627;DHT22;10975;47.872;12.972;2023-04-09T01:01:37;4.20;99.90
21627;DHT22;10975;47.872;12.972;2023-04-09T01:04:05;4.20;99.90
21627;DHT22;10975;47.872;12.972;2023-04-09T01:06:44;4.20;99.90
21627;DHT22;10975;47.872;12.972;2023-04-09T01:09:18;4.30;99.90
21627;DHT22;10975;47.872;12.972;2023-04-09T01:11:53;4.20;99.90
21627;DHT22;10975;47.872;12.972;2023-04-09T01:16:59;4.20;99.90
21627;DHT22;10975;47.872;12.972;2023-04-09T01:19:34;4.20;99.90
21627;DHT22;10975;47.872;12.972;2023-04-09T01:22:03;4.20;99.90
21627;DHT22;10975;47.872;12.972;2023-04-09T01:24:43;4.20;99.90
21627;DHT22;10975;47.872;12.972;2023-04-09T01:27:17;4.20;99.90
21627;DHT22;10975;47.872;12.972;2023-04-09T01:29:45;4.20;99.90
21627;DHT22;10975;47.872;12.972;2023-04-09T01:32:12;4.20;99.90
21627;DHT22;10975;47.872;12.972;2023-04-09T01:34:41;4.20;99.90
21627;DHT22;10975;47.872;12.972;2023-04-09T01:37:10;4.20;99.90
21627;DHT22;10975;47.872;12.972;2023-04-09T01:39:37;4.20;99.90
21627;DHT22;10975;47.872;12.972;2023-04-09T01:42:04;4.10;99.90
21627;DHT22;10975;47.872;12.972;2023-04-09T01:44:35;4.10;99.90
21627;DHT22;10975;47.872;12.972;2023-04-09T01:47:03;4.20;99.90
21627;DHT22;10975;47.872;12.972;2023-04-09T01:49:48;4.20;99.90
21627;DHT22;10975;47.872;12.972;2023-04-09T01:52:15;4.20;99.90
21627;DHT22;10975;47.872;12.972;2023-04-09T01:54:43;4.10;99.90
21627;DHT22;10975;47.872;12.972;2023-04-09T01:57:10;4.10;99.90
21627;DHT22;10975;47.872;12.972;2023-04-09T01:59:37;4.10;99.90
21627;DHT22;10975;47.872;12.972;2023-04-09T02:02:09;4.00;99.90
21627;DHT22;10975;47.872;12.972;2023-04-09T02:04:40;4.00;99.90
21627;DHT22;10975;47.872;12.972;2023-04-09T02:07:24;3.90;99.90
21627;DHT22;10975;47.872;12.972;2023-04-09T02:09:52;3.90;99.90
21627;DHT22;10975;47.872;12.972;2023-04-09T02:12:19;3.90;99.90
21627;DHT22;10975;47.872;12.972;2023-04-09T02:14:47;4.00;99.90
21627;DHT22;10975;47.872;12.972;2023-04-09T02:17:16;4.00;99.90
21627;DHT22;10975;47.872;12.972;2023-04-09T02:19:44;4.00;99.90
21627;DHT22;10975;47.872;12.972;2023-04-09T02:22:11;4.00;99.90
21627;DHT22;10975;47.872;12.972;2023-04-09T02:24:38;4.10;99.90
21627;DHT22;10975;47.872;12.972;2023-04-09T02:27:06;4.10;99.90
21627;DHT22;10975;47.872;12.972;2023-04-09T02:29:33;4.10;99.90
21627;DHT22;10975;47.872;12.972;2023-04-09T02:32:00;4.10;99.90
21627;DHT22;10975;47.872;12.972;2023-04-09T02:34:26;4.10;99.90
21627;DHT22;10975;47.872;12.972;2023-04-09T02:36:53;4.10;99.90
21627;DHT22;10975;47.872;12.972;2023-04-09T02:39:20;4.20;99.90
21627;DHT22;10975;47.872;12.972;2023-04-09T02:41:47;4.30;99.90
21627;DHT22;10975;47.872;12.972;2023-04-09T02:44:13;4.20;99.90
21627;DHT22;10975;47.872;12.972;2023-04-09T02:46:40;4.20;99.90
21627;DHT22;10975;47.872;12.972;2023-04-09T02:49:07;4.30;99.90
21627;DHT22;10975;47.872;12.972;2023-04-09T02:51:34;4.30;99.90
21627;DHT22;10975;47.872;12.972;2023-04-09T02:54:02;4.30;99.90
21627;DHT22;10975;47.872;12.972;2023-04-09T02:56:29;4.30;99.90
21627;DHT22;10975;47.872;12.972;2023-04-09T02:58:55;4.30;99.90
21627;DHT22;10975;47.872;12.972;2023-04-09T03:01:22;4.30;99.90
21627;DHT22;10975;47.872;12.972;2023-04-09T03:03:49;4.30;99.90
21627;DHT22;10975;47.872;12.972;2023-04-09T03:06:16;4.30;99.90
21627;DHT22;10975;47.872;12.972;2023-04-09T03:08:44;4.30;99.90
21627;DHT22;10975;47.872;12.972;2023-04-09T03:11:11;4.30;99.90
21627;DHT22;10975;47.872;12.972;2023-04-09T03:13:37;4.30;99.90
21627;DHT22;10975;47.872;12.972;2023-04-09T03:16:04;4.40;99.90
21627;DHT22;10975;47.872;12.972;2023-04-09T03:18:31;4.40;99.90
21627;DHT22;10975;47.872;12.972;2023-04-09T03:20:58;4.40;99.90
21627;DHT22;10975;47.872;12.972;2023-04-09T03:23:24;4.40;99.90
21627;DHT22;10975;47.872;12.972;2023-04-09T03:26:03;4.40;99.90
21627;DHT22;10975;47.872;12.972;2023-04-09T03:28:30;4.40;99.90
21627;DHT22;10975;47.872;12.972;2023-04-09T03:30:57;4.40;99.90
21627;DHT22;10975;47.872;12.972;2023-04-09T03:33:24;4.40;99.90
21627;DHT22;10975;47.872;12.972;2023-04-09T03:35:53;4.40;99.90
21627;DHT22;10975;47.872;12.972;2023-04-09T03:38:20;4.50;99.90
21627;DHT22;10975;47.872;12.972;2023-04-09T03:40:47;4.50;99.90
21627;DHT22;10975;47.872;12.972;2023-04-09T03:43:14;4.40;99.90
21627;DHT22;10975;47.872;12.972;2023-04-09T03:45:41;4.40;99.90
21627;DHT22;10975;47.872;12.972;2023-04-09T03:48:08;4.30;99.90
21627;DHT22;10975;47.872;12.972;2023-04-09T03:50:38;4.40;99.90
21627;DHT22;10975;47.872;12.972;2023-04-09T03:53:05;4.40;99.90
21627;DHT22;10975;47.872;12.972;2023-04-09T03:55:32;4.40;99.90
21627;DHT22;10975;47.872;12.972;2023-04-09T03:57:59;4.40;99.90
21627;DHT22;10975;47.872;12.972;2023-04-09T04:00:25;4.40;99.90
21627;DHT22;10975;47.872;12.972;2023-04-09T04:02:52;4.40;99.90
21627;DHT22;10975;47.872;12.972;2023-04-09T04:05:21;4.40;99.90
21627;DHT22;10975;47.872;12.972;2023-04-09T04:07:48;4.40;99.90
21627;DHT22;10975;47.872;12.972;2023-04-09T04:10:14;4.40;99.90
21627;DHT22;10975;47.872;12.972;2023-04-09T04:12:41;4.30;99.90
21627;DHT22;10975;47.872;12.972;2023-04-09T04:15:08;4.40;99.90
21627;DHT22;10975;47.872;12.972;2023-04-09T04:17:35;4.30;99.90
21627;DHT22;10975;47.872;12.972;2023-04-09T04:20:01;4.40;99.90
21627;DHT22;10975;47.872;12.972;2023-04-09T04:22:29;4.30;99.90
21627;DHT22;10975;47.872;12.972;2023-04-09T04:24:56;4.30;99.90
21627;DHT22;10975;47.872;12.972;2023-04-09T04:27:22;4.30;99.90
21627;DHT22;10975;47.872;12.972;2023-04-09T04:29:52;4.30;99.90
21627;DHT22;10975;47.872;12.972;2023-04-09T04:32:19;4.30;99.90
21627;DHT22;10975;47.872;12.972;2023-04-09T04:34:47;4.30;99.90
21627;DHT22;10975;47.872;12.972;2023-04-09T04:37:14;4.30;99.90
21627;DHT22;10975;47.872;12.972;2023-04-09T04:39:41;4.30;99.90
21627;DHT22;10975;47.872;12.972;2023-04-09T04:42:07;4.30;99.90
21627;DHT22;10975;47.872;12.972;2023-04-09T04:44:34;4.40;99.90
21627;DHT22;10975;47.872;12.972;2023-04-09T04:47:01;4.40;99.90
21627;DHT22;10975;47.872;12.972;2023-04-09T04:49:27;4.40;99.90
21627;DHT22;10975;47.872;12.972;2023-04-09T04:51:54;4.40;99.90
21627;DHT22;10975;47.872;12.972;2023-04-09T04:54:21;4.40;99.90
21627;DHT22;10975;47.872;12.972;2023-04-09T04:56:47;4.40;99.90
21627;DHT22;10975;47.872;12.972;2023-04-09T04:59:14;4.50;99.90
21627;DHT22;10975;47.872;12.972;2023-04-09T05:01:41;4.50;99.90
21627;DHT22;10975;47.872;12.972;2023-04-09T05:04:08;4.50;99.90
21627;DHT22;10975;47.872;12.972;2023-04-09T05:06:34;4.50;99.90
21627;DHT22;10975;47.872;12.972;2023-04-09T05:09:01;4.50;99.90
21627;DHT22;10975;47.872;12.972;2023-04-09T05:11:28;4.50;99.90
21627;DHT22;10975;47.872;12.972;2023-04-09T05:13:54;4.50;99.90
21627;DHT22;10975;47.872;12.972;2023-04-09T05:16:22;4.50;99.90
21627;DHT22;10975;47.872;12.972;2023-04-09T05:18:49;4.50;99.90
21627;DHT22;10975;47.872;12.972;2023-04-09T05:21:16;4.40;99.90
21627;DHT22;10975;47.872;12.972;2023-04-09T05:23:43;4.40;99.90
21627;DHT22;10975;47.872;12.972;2023-04-09T05:26:09;4.40;99.90
21627;DHT22;10975;47.872;12.972;2023-04-09T05:28:37;4.40;99.90
21627;DHT22;10975;47.872;12.972;2023-04-09T05:31:03;4.40;99.90
21627;DHT22;10975;47.872;12.972;2023-04-09T05:33:30;4.40;99.90
21627;DHT22;10975;47.872;12.972;2023-04-09T05:36:04;4.40;99.90
21627;DHT22;10975;47.872;12.972;2023-04-09T05:38:31;4.50;99.90
21627;DHT22;10975;47.872;12.972;2023-04-09T05:40:57;4.50;99.90
21627;DHT22;10975;47.872;12.972;2023-04-09T05:43:24;4.50;99.90
21627;DHT22;10975;47.872;12.972;2023-04-09T05:45:51;4.50;99.90
21627;DHT22;10975;47.872;12.972;2023-04-09T05:48:17;4.50;99.90
21627;DHT22;10975;47.872;12.972;2023-04-09T05:50:48;4.40;99.90
21627;DHT22;10975;47.872;12.972;2023-04-09T05:53:21;4.40;99.90
21627;DHT22;10975;47.872;12.972;2023-04-09T05:55:52;4.50;99.90
21627;DHT22;10975;47.872;12.972;2023-04-09T05:58:18;4.50;99.90
21627;DHT22;10975;47.872;12.972;2023-04-09T06:00:45;4.50;99.90
21627;DHT22;10975;47.872;12.972;2023-04-09T06:03:12;4.50;99.90
21627;DHT22;10975;47.872;12.972;2023-04-09T06:05:38;4.50;99.90
21627;DHT22;10975;47.872;12.972;2023-04-09T06:08:05;4.60;99.90
21627;DHT22;10975;47.872;12.972;2023-04-09T06:10:32;4.60;99.90
21627;DHT22;10975;47.872;12.972;2023-04-09T06:12:59;4.70;99.90
21627;DHT22;10975;47.872;12.972;2023-04-09T06:15:26;4.80;99.90
21627;DHT22;10975;47.872;12.972;2023-04-09T06:17:53;4.90;99.90
21627;DHT22;10975;47.872;12.972;2023-04-09T06:20:20;5.00;99.90
21627;DHT22;10975;47.872;12.972;2023-04-09T06:22:47;5.00;99.90
21627;DHT22;10975;47.872;12.972;2023-04-09T06:25:13;5.10;99.90
21627;DHT22;10975;47.872;12.972;2023-04-09T06:27:40;5.20;99.90
21627;DHT22;10975;47.872;12.972;2023-04-09T06:30:07;5.20;99.90
21627;DHT22;10975;47.872;12.972;2023-04-09T06:32:34;5.20;99.90
21627;DHT22;10975;47.872;12.972;2023-04-09T06:35:16;5.20;99.90
21627;DHT22;10975;47.872;12.972;2023-04-09T06:37:43;5.20;99.90
21627;DHT22;10975;47.872;12.972;2023-04-09T06:40:10;5.30;99.90
21627;DHT22;10975;47.872;12.972;2023-04-09T06:42:37;5.30;99.90
21627;DHT22;10975;47.872;12.972;2023-04-09T06:45:03;5.30;99.90
21627;DHT22;10975;47.872;12.972;2023-04-09T06:47:34;5.30;99.90
21627;DHT22;10975;47.872;12.972;2023-04-09T06:50:03;5.30;99.90
21627;DHT22;10975;47.872;12.972;2023-04-09T06:52:30;5.40;99.90
21627;DHT22;10975;47.872;12.972;2023-04-09T06:54:56;5.40;99.90
21627;DHT22;10975;47.872;12.972;2023-04-09T06:57:24;5.40;99.90
21627;DHT22;10975;47.872;12.972;2023-04-09T06:59:50;5.40;99.90
21627;DHT22;10975;47.872;12.972;2023-04-09T07:02:17;5.40;99.90
21627;DHT22;10975;47.872;12.972;2023-04-09T07:04:44;5.40;99.90
21627;DHT22;10975;47.872;12.972;2023-04-09T07:07:11;5.40;99.90
21627;DHT22;10975;47.872;12.972;2023-04-09T07:09:38;5.40;99.90
21627;DHT22;10975;47.872;12.972;2023-04-09T07:12:05;5.40;99.90
21627;DHT22;10975;47.872;12.972;2023-04-09T07:14:31;5.40;99.90
21627;DHT22;10975;47.872;12.972;2023-04-09T07:16:58;5.40;99.90
21627;DHT22;10975;47.872;12.972;2023-04-09T07:19:25;5.40;99.90
21627;DHT22;10975;47.872;12.972;2023-04-09T07:21:51;5.50;99.90
21627;DHT22;10975;47.872;12.972;2023-04-09T07:24:18;5.50;99.90
21627;DHT22;10975;47.872;12.972;2023-04-09T07:26:45;5.60;99.90
21627;DHT22;10975;47.872;12.972;2023-04-09T07:29:12;5.60;99.90
21627;DHT22;10975;47.872;12.972;2023-04-09T07:31:38;5.60;99.90
21627;DHT22;10975;47.872;12.972;2023-04-09T07:34:05;5.70;99.90
21627;DHT22;10975;47.872;12.972;2023-04-09T07:36:32;5.70;99.90
21627;DHT22;10975;47.872;12.972;2023-04-09T07:38:59;5.80;99.90
21627;DHT22;10975;47.872;12.972;2023-04-09T07:41:25;5.80;99.90
21627;DHT22;10975;47.872;12.972;2023-04-09T07:43:52;5.90;99.90
21627;DHT22;10975;47.872;12.972;2023-04-09T07:46:19;5.80;99.90
21627;DHT22;10975;47.872;12.972;2023-04-09T07:48:47;5.90;99.90
21627;DHT22;10975;47.872;12.972;2023-04-09T07:51:15;5.90;99.90
21627;DHT22;10975;47.872;12.972;2023-04-09T07:53:42;6.10;99.90
21627;DHT22;10975;47.872;12.972;2023-04-09T07:56:09;6.10;99.90
21627;DHT22;10975;47.872;12.972;2023-04-09T07:58:35;6.10;99.90
21627;DHT22;10975;47.872;12.972;2023-04-09T08:01:03;6.10;99.90
21627;DHT22;10975;47.872;12.972;2023-04-09T08:03:30;6.10;99.90
21627;DHT22;10975;47.872;12.972;2023-04-09T08:05:57;6.00;99.90
21627;DHT22;10975;47.872;12.972;2023-04-09T08:08:24;6.00;99.90
21627;DHT22;10975;47.872;12.972;2023-04-09T08:10:51;6.00;99.90
21627;DHT22;10975;47.872;12.972;2023-04-09T08:13:17;6.10;99.90
21627;DHT22;10975;47.872;12.972;2023-04-09T08:15:44;6.10;99.90
21627;DHT22;10975;47.872;12.972;2023-04-09T08:18:11;6.20;99.90
21627;DHT22;10975;47.872;12.972;2023-04-09T08:20:38;6.20;99.90
21627;DHT22;10975;47.872;12.972;2023-04-09T08:23:10;6.30;99.90
21627;DHT22;10975;47.872;12.972;2023-04-09T08:25:37;6.30;99.90
21627;DHT22;10975;47.872;12.972;2023-04-09T08:28:04;6.40;99.90
21627;DHT22;10975;47.872;12.972;2023-04-09T08:30:30;6.40;99.90
21627;DHT22;10975;47.872;12.972;2023-04-09T08:33:00;6.40;99.90
21627;DHT22;10975;47.872;12.972;2023-04-09T08:35:28;6.50;99.90
21627;DHT22;10975;47.872;12.972;2023-04-09T08:37:55;6.50;99.90
21627;DHT22;10975;47.872;12.972;2023-04-09T08:40:23;6.60;99.90
21627;DHT22;10975;47.872;12.972;2023-04-09T08:42:52;6.60;99.90
21627;DHT22;10975;47.872;12.972;2023-04-09T08:45:19;6.60;99.90
21627;DHT22;10975;47.872;12.972;2023-04-09T08:47:47;6.70;99.90
21627;DHT22;10975;47.872;12.972;2023-04-09T08:50:14;6.70;99.90
21627;DHT22;10975;47.872;12.972;2023-04-09T08:52:41;6.70;99.90
21627;DHT22;10975;47.872;12.972;2023-04-09T08:55:08;6.70;99.90
21627;DHT22;10975;47.872;12.972;2023-04-09T08:57:37;6.70;99.90
21627;DHT22;10975;47.872;12.972;2023-04-09T09:00:06;6.80;99.90
21627;DHT22;10975;47.872;12.972;2023-04-09T09:02:34;6.80;99.90
21627;DHT22;10975;47.872;12.972;2023-04-09T09:05:01;6.90;99.90
21627;DHT22;10975;47.872;12.972;2023-04-09T09:07:27;6.80;99.90
21627;DHT22;10975;47.872;12.972;2023-04-09T09:09:58;6.90;99.90
21627;DHT22;10975;47.872;12.972;2023-04-09T09:14:57;7.00;99.90
21627;DHT22;10975;47.872;12.972;2023-04-09T09:17:24;7.00;99.90
21627;DHT22;10975;47.872;12.972;2023-04-09T09:19:51;7.10;99.90
21627;DHT22;10975;47.872;12.972;2023-04-09T09:22:18;7.10;99.90
21627;DHT22;10975;47.872;12.972;2023-04-09T09:24:48;7.20;99.90
21627;DHT22;10975;47.872;12.972;2023-04-09T09:30:00;7.20;99.90
21627;DHT22;10975;47.872;12.972;2023-04-09T09:32:26;7.20;99.90
21627;DHT22;10975;47.872;12.972;2023-04-09T09:35:26;7.20;99.90
21627;DHT22;10975;47.872;12.972;2023-04-09T09:37:46;7.30;99.90
21627;DHT22;10975;47.872;12.972;2023-04-09T09:40:25;7.30;99.90
21627;DHT22;10975;47.872;12.972;2023-04-09T09:42:55;7.40;99.90
21627;DHT22;10975;47.872;12.972;2023-04-09T09:45:25;7.40;99.90
21627;DHT22;10975;47.872;12.972;2023-04-09T09:47:52;7.40;99.90
21627;DHT22;10975;47.872;12.972;2023-04-09T09:50:20;7.50;99.90
21627;DHT22;10975;47.872;12.972;2023-04-09T09:52:49;7.60;99.90
21627;DHT22;10975;47.872;12.972;2023-04-09T09:55:16;7.60;99.90
21627;DHT22;10975;47.872;12.972;2023-04-09T09:57:43;7.50;99.90
21627;DHT22;10975;47.872;12.972;2023-04-09T10:00:12;7.50;99.90
21627;DHT22;10975;47.872;12.972;2023-04-09T10:02:42;7.40;99.90
21627;DHT22;10975;47.872;12.972;2023-04-09T10:05:10;7.40;99.90
21627;DHT22;10975;47.872;12.972;2023-04-09T10:07:36;7.30;99.90
21627;DHT22;10975;47.872;12.972;2023-04-09T10:10:04;7.30;99.90
21627;DHT22;10975;47.872;12.972;2023-04-09T10:12:31;7.30;99.90
21627;DHT22;10975;47.872;12.972;2023-04-09T10:14:58;7.20;99.90
21627;DHT22;10975;47.872;12.972;2023-04-09T10:17:29;7.20;99.90
21627;DHT22;10975;47.872;12.972;2023-04-09T10:20:06;7.10;99.90
21627;DHT22;10975;47.872;12.972;2023-04-09T10:22:35;7.10;99.90
21627;DHT22;10975;47.872;12.972;2023-04-09T10:25:03;7.20;99.90
21627;DHT22;10975;47.872;12.972;2023-04-09T10:27:30;7.20;99.90
21627;DHT22;10975;47.872;12.972;2023-04-09T10:29:56;7.20;99.90
21627;DHT22;10975;47.872;12.972;2023-04-09T10:32:25;7.20;99.90
21627;DHT22;10975;47.872;12.972;2023-04-09T10:34:57;7.30;99.90
21627;DHT22;10975;47.872;12.972;2023-04-09T10:37:40;7.30;99.90
21627;DHT22;10975;47.872;12.972;2023-04-09T10:40:17;7.30;99.90
21627;DHT22;10975;47.872;12.972;2023-04-09T10:42:44;7.30;99.90
21627;DHT22;10975;47.872;12.972;2023-04-09T10:45:12;7.30;99.90
21627;DHT22;10975;47.872;12.972;2023-04-09T10:47:41;7.30;99.90
21627;DHT22;10975;47.872;12.972;2023-04-09T10:50:24;7.30;99.90
21627;DHT22;10975;47.872;12.972;2023-04-09T10:52:53;7.30;99.90
21627;DHT22;10975;47.872;12.972;2023-04-09T10:55:29;7.30;99.90
21627;DHT22;10975;47.872;12.972;2023-04-09T10:57:57;7.40;99.90
21627;DHT22;10975;47.872;12.972;2023-04-09T11:00:24;7.40;99.90
21627;DHT22;10975;47.872;12.972;2023-04-09T11:05:56;7.50;99.90
21627;DHT22;10975;47.872;12.972;2023-04-09T11:08:26;7.50;99.90
21627;DHT22;10975;47.872;12.972;2023-04-09T11:10:54;7.50;99.90
21627;DHT22;10975;47.872;12.972;2023-04-09T11:13:26;7.50;99.90
21627;DHT22;10975;47.872;12.972;2023-04-09T11:15:53;7.50;99.90
21627;DHT22;10975;47.872;12.972;2023-04-09T11:18:28;7.40;99.90
21627;DHT22;10975;47.872;12.972;2023-04-09T11:21:07;7.50;99.90
21627;DHT22;10975;47.872;12.972;2023-04-09T11:30:37;7.40;99.90
21627;DHT22;10975;47.872;12.972;2023-04-09T12:24:43;7.50;99.90
21627;DHT22;10975;47.872;12.972;2023-04-09T12:38:12;7.60;99.90
21627;DHT22;10975;47.872;12.972;2023-04-09T12:41:27;7.60;99.90
21627;DHT22;10975;47.872;12.972;2023-04-09T13:06:35;9.00;99.90
21627;DHT22;10975;47.872;12.972;2023-04-09T13:09:46;9.10;99.90
21627;DHT22;10975;47.872;12.972;2023-04-09T13:14:47;9.40;99.90
21627;DHT22;10975;47.872;12.972;2023-04-09T13:17:14;9.40;99.90
21627;DHT22;10975;47.872;12.972;2023-04-09T13:22:30;9.70;99.90
21627;DHT22;10975;47.872;12.972;2023-04-09T13:25:38;10.10;99.90
21627;DHT22;10975;47.872;12.972;2023-04-09T13:28:05;10.30;99.90
21627;DHT22;10975;47.872;12.972;2023-04-09T13:30:31;10.50;99.90
21627;DHT22;10975;47.872;12.972;2023-04-09T13:32:58;10.60;99.90
21627;DHT22;10975;47.872;12.972;2023-04-09T13:35:25;10.10;99.90
21627;DHT22;10975;47.872;12.972;2023-04-09T13:37:52;9.70;99.90
21627;DHT22;10975;47.872;12.972;2023-04-09T13:40:19;9.40;99.90
21627;DHT22;10975;47.872;12.972;2023-04-09T13:42:46;9.30;99.90
21627;DHT22;10975;47.872;12.972;2023-04-09T13:45:12;9.30;99.90
21627;DHT22;10975;47.872;12.972;2023-04-09T13:47:41;9.40;99.90
21627;DHT22;10975;47.872;12.972;2023-04-09T13:50:08;9.60;99.90
21627;DHT22;10975;47.872;12.972;2023-04-09T13:52:36;9.70;99.90
21627;DHT22;10975;47.872;12.972;2023-04-09T13:55:04;9.90;99.90
21627;DHT22;10975;47.872;12.972;2023-04-09T13:57:32;9.90;99.90
21627;DHT22;10975;47.872;12.972;2023-04-09T14:00:04;10.00;99.90
21627;DHT22;10975;47.872;12.972;2023-04-09T14:02:31;10.10;99.90
21627;DHT22;10975;47.872;12.972;2023-04-09T14:04:58;10.10;99.90
21627;DHT22;10975;47.872;12.972;2023-04-09T14:07:25;10.20;99.90
21627;DHT22;10975;47.872;12.972;2023-04-09T14:09:52;10.30;99.90
21627;DHT22;10975;47.872;12.972;2023-04-09T14:12:18;10.20;99.90
21627;DHT22;10975;47.872;12.972;2023-04-09T14:14:45;10.20;99.90
21627;DHT22;10975;47.872;12.972;2023-04-09T14:17:12;10.50;99.90
21627;DHT22;10975;47.872;12.972;2023-04-09T14:19:40;10.80;99.90
21627;DHT22;10975;47.872;12.972;2023-04-09T14:22:08;11.10;99.90
21627;DHT22;10975;47.872;12.972;2023-04-09T14:24:37;11.50;99.90
21627;DHT22;10975;47.872;12.972;2023-04-09T14:27:06;11.60;99.90
21627;DHT22;10975;47.872;12.972;2023-04-09T14:29:33;11.40;99.90
21627;DHT22;10975;47.872;12.972;2023-04-09T14:31:59;11.00;99.90
21627;DHT22;10975;47.872;12.972;2023-04-09T14:34:29;10.80;99.90
21627;DHT22;10975;47.872;12.972;2023-04-09T14:36:56;10.50;99.90
21627;DHT22;10975;47.872;12.972;2023-04-09T14:39:23;10.40;99.90
21627;DHT22;10975;47.872;12.972;2023-04-09T14:41:55;10.40;99.90
21627;DHT22;10975;47.872;12.972;2023-04-09T14:44:22;10.30;99.90
21627;DHT22;10975;47.872;12.972;2023-04-09T14:46:52;10.20;99.90
21627;DHT22;10975;47.872;12.972;2023-04-09T14:49:20;10.20;99.90
21627;DHT22;10975;47.872;12.972;2023-04-09T14:51:47;10.10;99.90
21627;DHT22;10975;47.872;12.972;2023-04-09T14:54:14;10.00;99.90
21627;DHT22;10975;47.872;12.972;2023-04-09T15:14:12;10.60;99.90
21627;DHT22;10975;47.872;12.972;2023-04-09T15:17:45;10.40;99.90
21627;DHT22;10975;47.872;12.972;2023-04-09T15:20:11;10.30;99.90
21627;DHT22;10975;47.872;12.972;2023-04-09T15:26:06;10.20;99.90
21627;DHT22;10975;47.872;12.972;2023-04-09T15:31:57;9.90;99.90
21627;DHT22;10975;47.872;12.972;2023-04-09T15:34:28;9.70;99.90
21627;DHT22;10975;47.872;12.972;2023-04-09T15:37:20;9.60;99.90
21627;DHT22;10975;47.872;12.972;2023-04-09T15:40:00;9.50;99.90
21627;DHT22;10975;47.872;12.972;2023-04-09T15:42:42;9.50;99.90
21627;DHT22;10975;47.872;12.972;2023-04-09T15:48:48;9.50;99.90
21627;DHT22;10975;47.872;12.972;2023-04-09T15:51:22;9.40;99.90
21627;DHT22;10975;47.872;12.972;2023-04-09T15:54:41;9.30;99.90
21627;DHT22;10975;47.872;12.972;2023-04-09T16:00:29;9.30;99.90
21627;DHT22;10975;47.872;12.972;2023-04-09T16:03:44;9.40;99.90
21627;DHT22;10975;47.872;12.972;2023-04-09T16:06:18;9.30;99.90
21627;DHT22;10975;47.872;12.972;2023-04-09T16:09:25;9.30;99.90
21627;DHT22;10975;47.872;12.972;2023-04-09T16:15:16;9.30;99.90
21627;DHT22;10975;47.872;12.972;2023-04-09T16:18:04;9.20;99.90
21627;DHT22;10975;47.872;12.972;2023-04-09T16:20:57;9.20;99.90
21627;DHT22;10975;47.872;12.972;2023-04-09T16:24:04;9.20;99.90
21627;DHT22;10975;47.872;12.972;2023-04-09T16:27:07;9.20;99.90
21627;DHT22;10975;47.872;12.972;2023-04-09T16:29:48;9.20;99.90
21627;DHT22;10975;47.872;12.972;2023-04-09T16:32:40;9.20;99.90
21627;DHT22;10975;47.872;12.972;2023-04-09T16:39:09;9.30;99.90
21627;DHT22;10975;47.872;12.972;2023-04-09T16:42:00;9.40;99.90
21627;DHT22;10975;47.872;12.972;2023-04-09T16:44:33;9.40;99.90
21627;DHT22;10975;47.872;12.972;2023-04-09T16:47:02;9.40;99.90
21627;DHT22;10975;47.872;12.972;2023-04-09T16:59:55;11.10;99.90
21627;DHT22;10975;47.872;12.972;2023-04-09T17:02:23;10.60;99.90
21627;DHT22;10975;47.872;12.972;2023-04-09T17:05:14;10.20;99.90
21627;DHT22;10975;47.872;12.972;2023-04-09T17:08:13;9.80;99.90
21627;DHT22;10975;47.872;12.972;2023-04-09T17:10:57;9.40;99.90
21627;DHT22;10975;47.872;12.972;2023-04-09T17:13:50;9.00;99.90
21627;DHT22;10975;47.872;12.972;2023-04-09T17:16:30;8.70;99.90
21627;DHT22;10975;47.872;12.972;2023-04-09T17:19:30;8.50;99.90
21627;DHT22;10975;47.872;12.972;2023-04-09T17:22:38;8.20;99.90
21627;DHT22;10975;47.872;12.972;2023-04-09T17:25:26;8.10;99.90
21627;DHT22;10975;47.872;12.972;2023-04-09T17:28:29;8.00;99.90
21627;DHT22;10975;47.872;12.972;2023-04-09T17:34:54;7.80;99.90
21627;DHT22;10975;47.872;12.972;2023-04-09T17:47:57;7.30;99.90
21627;DHT22;10975;47.872;12.972;2023-04-09T17:50:25;7.20;99.90
21627;DHT22;10975;47.872;12.972;2023-04-09T17:52:52;7.10;99.90
21627;DHT22;10975;47.872;12.972;2023-04-09T17:55:19;7.00;99.90
21627;DHT22;10975;47.872;12.972;2023-04-09T17:57:46;6.90;99.90
21627;DHT22;10975;47.872;12.972;2023-04-09T18:00:13;6.80;99.90
21627;DHT22;10975;47.872;12.972;2023-04-09T18:02:40;6.80;99.90
21627;DHT22;10975;47.872;12.972;2023-04-09T18:05:09;6.70;99.90
21627;DHT22;10975;47.872;12.972;2023-04-09T18:07:36;6.60;99.90
21627;DHT22;10975;47.872;12.972;2023-04-09T18:10:04;6.60;99.90
21627;DHT22;10975;47.872;12.972;2023-04-09T18:12:31;6.50;99.90
21627;DHT22;10975;47.872;12.972;2023-04-09T18:14:58;6.50;99.90
21627;DHT22;10975;47.872;12.972;2023-04-09T18:17:24;6.40;99.90
21627;DHT22;10975;47.872;12.972;2023-04-09T18:19:52;6.40;99.90
21627;DHT22;10975;47.872;12.972;2023-04-09T18:22:19;6.30;99.90
21627;DHT22;10975;47.872;12.972;2023-04-09T18:24:45;6.30;99.90
21627;DHT22;10975;47.872;12.972;2023-04-09T18:27:12;6.20;99.90
21627;DHT22;10975;47.872;12.972;2023-04-09T18:29:39;6.20;99.90
21627;DHT22;10975;47.872;12.972;2023-04-09T18:32:06;6.10;99.90
21627;DHT22;10975;47.872;12.972;2023-04-09T18:34:35;6.00;99.90
21627;DHT22;10975;47.872;12.972;2023-04-09T18:37:03;5.90;99.90
21627;DHT22;10975;47.872;12.972;2023-04-09T18:39:30;5.90;99.90